Uni-arise — 3FSV7 — position and weather

sailwx.info

Track history (hours):
 
Tides and Currents Weather Stations Pressure Air Temp Water Temp Dewpoint Dewpoint Depression Visibility Wind Speed Wind Dir Waves Ship Positions

Uni-arise

Last reported at 2017-Apr-20 11:31 UTC. Time now 2017-Apr-27 07:10 UTC.
Position N 33°58' E 134°56'.

Length 165 m; draft 7.5 m.

Type: Ship (hazmat cat D). MMSI: 351608000.

Date/timePositionNaut miles runAvg speedWind from/ knotsBaromVisibWave heightAir tempDewpointWater temp
2017-Apr-20 11:31N 33°58' E 134°56'016.7
2017-Apr-20 11:30N 33°58' E 134°56'816.7
2017-Apr-20 11:00N 34°07' E 134°57'714.3
2017-Apr-20 10:30N 34°14' E 134°58'612.7
2017-Apr-20 10:00N 34°20' E 134°59'815.6
2017-Apr-20 09:30N 34°26' E 135°05'816.6
2017-Apr-20 09:00N 34°32' E 135°12'713.7
2017-Apr-20 08:31N 34°37' E 135°17'3 6.8
2017-Apr-20 08:00N 34°40' E 135°14'0 0.1
2017-Apr-20 07:29N 34°40' E 135°14'0 0.0
2017-Apr-20 06:59N 34°40' E 135°14'0 0.0
2017-Apr-20 06:29N 34°40' E 135°14'0 0.0
2017-Apr-20 05:59N 34°40' E 135°14'0 0.0
2017-Apr-20 05:29N 34°40' E 135°14'0 0.0
2017-Apr-20 04:59N 34°40' E 135°14'0 0.0
2017-Apr-20 04:29N 34°40' E 135°14'0 0.0
2017-Apr-20 03:59N 34°40' E 135°14'0 0.0
2017-Apr-20 03:29N 34°40' E 135°14'0 0.0
2017-Apr-20 02:59N 34°40' E 135°14'0 0.0
2017-Apr-20 02:29N 34°40' E 135°14'0 0.0
2017-Apr-20 01:59N 34°40' E 135°14'0 0.0
2017-Apr-20 01:29N 34°40' E 135°14'0 0.0
2017-Apr-20 00:59N 34°40' E 135°14'0 0.0
2017-Apr-20 00:29N 34°40' E 135°14'0 0.0
2017-Apr-19 23:59N 34°40' E 135°14'0 0.0
2017-Apr-19 23:23N 34°40' E 135°14'0 0.0
2017-Apr-19 22:59N 34°40' E 135°14'0 0.0
2017-Apr-19 22:29N 34°40' E 135°14'1 2.0
2017-Apr-19 22:00N 34°39' E 135°15'5 9.3
2017-Apr-19 21:30N 34°38' E 135°20'3 6.0
2017-Apr-19 21:00N 34°39' E 135°24'0 0.0
2017-Apr-19 20:23N 34°39' E 135°24'0 0.0
2017-Apr-19 19:59N 34°39' E 135°24'0 0.0
2017-Apr-19 19:23N 34°39' E 135°24'0 0.0
2017-Apr-19 18:59N 34°39' E 135°24'0 0.0
2017-Apr-19 18:23N 34°39' E 135°24'0 0.0
2017-Apr-19 17:59N 34°39' E 135°24'0 0.0
2017-Apr-19 17:29N 34°39' E 135°24'0 0.0
2017-Apr-19 16:59N 34°39' E 135°24'0 0.0
2017-Apr-19 16:29N 34°39' E 135°24'0 0.0
2017-Apr-19 15:59N 34°39' E 135°24'0 0.0
2017-Apr-19 15:29N 34°39' E 135°24'0 0.0
2017-Apr-19 14:59N 34°39' E 135°24'0 0.0
2017-Apr-19 14:29N 34°39' E 135°24'0 0.0
2017-Apr-19 13:17N 34°39' E 135°24'0 0.0
2017-Apr-19 12:59N 34°39' E 135°24'0 0.0
2017-Apr-19 12:29N 34°39' E 135°24'0 0.0
2017-Apr-19 11:59N 34°39' E 135°24'0 0.0
2017-Apr-19 11:23N 34°39' E 135°24'0 0.0
2017-Apr-19 10:47N 34°39' E 135°24'0 0.0
2017-Apr-19 10:29N 34°39' E 135°24'0 0.0
2017-Apr-19 09:59N 34°39' E 135°24'0 0.0
2017-Apr-19 09:29N 34°39' E 135°24'0 0.0
2017-Apr-19 08:59N 34°39' E 135°24'0 0.0
2017-Apr-19 08:26N 34°39' E 135°24'3 7.6
2017-Apr-19 08:00N 34°37' E 135°21'713.7
2017-Apr-19 07:30N 34°32' E 135°15'815.1
2017-Apr-19 07:00N 34°27' E 135°09'1115.8
2017-Apr-19 06:18N 34°18' E 135°00'413.9
2017-Apr-19 06:00N 34°14' E 134°59'  
2017-Apr-15 12:43N 22°53' E 119°59'314.9
2017-Apr-15 12:30N 22°50' E 120°00'715.0
2017-Apr-15 12:00N 22°43' E 120°04'714.7
2017-Apr-15 11:30N 22°37' E 120°08'612.9
2017-Apr-15 11:00N 22°33' E 120°13'6 0.6
2017-Apr-15 01:17N 22°33' E 120°20'0 0.2
2017-Apr-15 00:33N 22°33' E 120°20'0 2.9
2017-Apr-15 00:30N 22°33' E 120°20'2 4.7
2017-Apr-15 00:00N 22°33' E 120°17'3 5.0
2017-Apr-14 23:30N 22°32' E 120°15'2 3.5
2017-Apr-14 23:00N 22°32' E 120°13'2 3.5
2017-Apr-14 22:31N 22°32' E 120°11'5 9.9
2017-Apr-14 22:00N 22°31' E 120°06'0 1.0
2017-Apr-14 21:30N 22°32' E 120°06'0 0.7
2017-Apr-14 21:00N 22°32' E 120°05'0 0.5
2017-Apr-14 20:30N 22°32' E 120°05'0 0.4
2017-Apr-14 20:00N 22°32' E 120°05'0 0.4
2017-Apr-14 19:30N 22°33' E 120°05'0 0.2
2017-Apr-14 19:01N 22°33' E 120°05'0 0.4
2017-Apr-14 18:30N 22°33' E 120°05'0 0.5
2017-Apr-14 18:00N 22°32' E 120°05'0 0.7
2017-Apr-14 17:30N 22°32' E 120°05'0 0.9
2017-Apr-14 17:00N 22°32' E 120°05'0 0.9
2017-Apr-14 16:31N 22°31' E 120°05'0 0.8
2017-Apr-14 16:01N 22°31' E 120°05'0 0.6
2017-Apr-14 15:30N 22°30' E 120°05'0 0.4
2017-Apr-14 15:01N 22°30' E 120°05'2 4.5
2017-Apr-14 14:31N 22°30' E 120°03'32913.6
2017-Apr-13 14:13N 22°19' E 114°07'0 0.0
2017-Apr-12 23:22N 22°20' E 114°07'  
Track history (hours):
 
Tides and Currents Weather Stations Pressure Air Temp Water Temp Dewpoint Dewpoint Depression Visibility Wind Speed Wind Dir Waves Ship Positions

Uni-arise

Last reported at 2017-Apr-20 11:31 UTC. Time now 2017-Apr-27 07:10 UTC.
Position N 33°58' E 134°56'.

Length 165 m; draft 7.5 m.

Type: Ship (hazmat cat D). MMSI: 351608000.

Date/timePositionNaut miles runAvg speedWind from/ knotsBaromVisibWave heightAir tempDewpointWater temp
2017-Apr-20 11:31N 33°58' E 134°56'016.7
2017-Apr-20 11:30N 33°58' E 134°56'816.7
2017-Apr-20 11:00N 34°07' E 134°57'714.3
2017-Apr-20 10:30N 34°14' E 134°58'612.7
2017-Apr-20 10:00N 34°20' E 134°59'815.6
2017-Apr-20 09:30N 34°26' E 135°05'816.6
2017-Apr-20 09:00N 34°32' E 135°12'713.7
2017-Apr-20 08:31N 34°37' E 135°17'3 6.8
2017-Apr-20 08:00N 34°40' E 135°14'0 0.1
2017-Apr-20 07:29N 34°40' E 135°14'0 0.0
2017-Apr-20 06:59N 34°40' E 135°14'0 0.0
2017-Apr-20 06:29N 34°40' E 135°14'0 0.0
2017-Apr-20 05:59N 34°40' E 135°14'0 0.0
2017-Apr-20 05:29N 34°40' E 135°14'0 0.0
2017-Apr-20 04:59N 34°40' E 135°14'0 0.0
2017-Apr-20 04:29N 34°40' E 135°14'0 0.0
2017-Apr-20 03:59N 34°40' E 135°14'0 0.0
2017-Apr-20 03:29N 34°40' E 135°14'0 0.0
2017-Apr-20 02:59N 34°40' E 135°14'0 0.0
2017-Apr-20 02:29N 34°40' E 135°14'0 0.0
2017-Apr-20 01:59N 34°40' E 135°14'0 0.0
2017-Apr-20 01:29N 34°40' E 135°14'0 0.0
2017-Apr-20 00:59N 34°40' E 135°14'0 0.0
2017-Apr-20 00:29N 34°40' E 135°14'0 0.0
2017-Apr-19 23:59N 34°40' E 135°14'0 0.0
2017-Apr-19 23:23N 34°40' E 135°14'0 0.0
2017-Apr-19 22:59N 34°40' E 135°14'0 0.0
2017-Apr-19 22:29N 34°40' E 135°14'1 2.0
2017-Apr-19 22:00N 34°39' E 135°15'5 9.3
2017-Apr-19 21:30N 34°38' E 135°20'3 6.0
2017-Apr-19 21:00N 34°39' E 135°24'0 0.0
2017-Apr-19 20:23N 34°39' E 135°24'0 0.0
2017-Apr-19 19:59N 34°39' E 135°24'0 0.0
2017-Apr-19 19:23N 34°39' E 135°24'0 0.0
2017-Apr-19 18:59N 34°39' E 135°24'0 0.0
2017-Apr-19 18:23N 34°39' E 135°24'0 0.0
2017-Apr-19 17:59N 34°39' E 135°24'0 0.0
2017-Apr-19 17:29N 34°39' E 135°24'0 0.0
2017-Apr-19 16:59N 34°39' E 135°24'0 0.0
2017-Apr-19 16:29N 34°39' E 135°24'0 0.0
2017-Apr-19 15:59N 34°39' E 135°24'0 0.0
2017-Apr-19 15:29N 34°39' E 135°24'0 0.0
2017-Apr-19 14:59N 34°39' E 135°24'0 0.0
2017-Apr-19 14:29N 34°39' E 135°24'0 0.0
2017-Apr-19 13:17N 34°39' E 135°24'0 0.0
2017-Apr-19 12:59N 34°39' E 135°24'0 0.0
2017-Apr-19 12:29N 34°39' E 135°24'0 0.0
2017-Apr-19 11:59N 34°39' E 135°24'0 0.0
2017-Apr-19 11:23N 34°39' E 135°24'0 0.0
2017-Apr-19 10:47N 34°39' E 135°24'0 0.0
2017-Apr-19 10:29N 34°39' E 135°24'0 0.0
2017-Apr-19 09:59N 34°39' E 135°24'0 0.0
2017-Apr-19 09:29N 34°39' E 135°24'0 0.0
2017-Apr-19 08:59N 34°39' E 135°24'0 0.0
2017-Apr-19 08:26N 34°39' E 135°24'3 7.6
2017-Apr-19 08:00N 34°37' E 135°21'713.7
2017-Apr-19 07:30N 34°32' E 135°15'815.1
2017-Apr-19 07:00N 34°27' E 135°09'1115.8
2017-Apr-19 06:18N 34°18' E 135°00'413.9
2017-Apr-19 06:00N 34°14' E 134°59'  
2017-Apr-15 12:43N 22°53' E 119°59'314.9
2017-Apr-15 12:30N 22°50' E 120°00'715.0
2017-Apr-15 12:00N 22°43' E 120°04'714.7
2017-Apr-15 11:30N 22°37' E 120°08'612.9
2017-Apr-15 11:00N 22°33' E 120°13'6 0.6
2017-Apr-15 01:17N 22°33' E 120°20'0 0.2
2017-Apr-15 00:33N 22°33' E 120°20'0 2.9
2017-Apr-15 00:30N 22°33' E 120°20'2 4.7
2017-Apr-15 00:00N 22°33' E 120°17'3 5.0
2017-Apr-14 23:30N 22°32' E 120°15'2 3.5
2017-Apr-14 23:00N 22°32' E 120°13'2 3.5
2017-Apr-14 22:31N 22°32' E 120°11'5 9.9
2017-Apr-14 22:00N 22°31' E 120°06'0 1.0
2017-Apr-14 21:30N 22°32' E 120°06'0 0.7
2017-Apr-14 21:00N 22°32' E 120°05'0 0.5
2017-Apr-14 20:30N 22°32' E 120°05'0 0.4
2017-Apr-14 20:00N 22°32' E 120°05'0 0.4
2017-Apr-14 19:30N 22°33' E 120°05'0 0.2
2017-Apr-14 19:01N 22°33' E 120°05'0 0.4
2017-Apr-14 18:30N 22°33' E 120°05'0 0.5
2017-Apr-14 18:00N 22°32' E 120°05'0 0.7
2017-Apr-14 17:30N 22°32' E 120°05'0 0.9
2017-Apr-14 17:00N 22°32' E 120°05'0 0.9
2017-Apr-14 16:31N 22°31' E 120°05'0 0.8
2017-Apr-14 16:01N 22°31' E 120°05'0 0.6
2017-Apr-14 15:30N 22°30' E 120°05'0 0.4
2017-Apr-14 15:01N 22°30' E 120°05'2 4.5
2017-Apr-14 14:31N 22°30' E 120°03'32913.6
2017-Apr-13 14:13N 22°19' E 114°07'0 0.0
2017-Apr-12 23:22N 22°20' E 114°07'  

Dump ship's entire track history